createdAt,value
2022-09-14T00:01:21.183Z,100995.69
2022-09-14T00:03:45.018Z,101001.94
2022-09-14T00:06:14.481Z,101007.06
2022-09-14T00:08:40.998Z,101006.25
2022-09-14T00:11:11.775Z,101000.97
2022-09-14T00:13:40.244Z,101000.13
2022-09-14T00:16:12.118Z,100998.69
2022-09-14T00:18:38.578Z,100982.03
2022-09-14T00:21:07.776Z,100986.38
2022-09-14T00:23:35.759Z,100992.56
2022-09-14T00:26:05.082Z,100988.50
2022-09-14T00:28:37.104Z,100985.03
2022-09-14T00:31:05.007Z,100983.38
2022-09-14T00:33:31.398Z,100983.25
2022-09-14T00:36:13.817Z,100964.19
2022-09-14T00:38:40.691Z,100967.81
2022-09-14T00:41:11.083Z,100958.19
2022-09-14T00:43:53.835Z,100957.59
2022-09-14T00:46:20.474Z,100949.94
2022-09-14T00:48:47.176Z,100948.53
2022-09-14T00:51:16.792Z,100952.13
2022-09-14T00:53:43.942Z,100951.06
2022-09-14T00:56:10.751Z,100938.81
2022-09-14T00:58:38.042Z,100943.25
2022-09-14T01:01:05.020Z,100943.25
2022-09-14T01:03:31.529Z,100932.72
2022-09-14T01:06:15.937Z,100934.28
2022-09-14T01:08:53.561Z,100931.63
2022-09-14T01:11:30.043Z,100927.34
2022-09-14T01:14:13.697Z,100925.78
2022-09-14T01:16:48.823Z,100920.50
2022-09-14T01:19:38.740Z,100921.47
2022-09-14T01:22:14.101Z,100901.47
2022-09-14T01:24:48.997Z,100911.88
2022-09-14T01:27:28.729Z,100917.88
2022-09-14T01:30:01.596Z,100914.50
2022-09-14T01:32:35.527Z,100908.78
2022-09-14T01:35:05.368Z,100907.94
2022-09-14T01:37:46.933Z,100904.34
2022-09-14T01:40:21.109Z,100903.75
2022-09-14T01:42:51.792Z,100908.19
2022-09-14T01:45:21.173Z,100896.56
2022-09-14T01:47:54.267Z,100893.09
2022-09-14T01:50:27.212Z,100903.50
2022-09-14T01:53:01.697Z,100899.19
2022-09-14T01:55:33.761Z,100902.69
2022-09-14T01:58:16.524Z,100896.56
2022-09-14T02:00:46.327Z,100893.91
2022-09-14T02:03:18.308Z,100890.81
2022-09-14T02:05:52.907Z,100889.03
2022-09-14T02:08:19.617Z,100888.19
2022-09-14T02:10:46.029Z,100889.84
2022-09-14T02:13:12.706Z,100884.59
2022-09-14T02:15:39.551Z,100885.56
2022-09-14T02:18:06.359Z,100882.19
2022-09-14T02:20:45.616Z,100876.94
2022-09-14T02:23:12.086Z,100868.31
2022-09-14T02:25:41.012Z,100870.97
2022-09-14T02:28:07.983Z,100871.31
2022-09-14T02:30:49.117Z,100873.25
2022-09-14T02:33:33.664Z,100866.19
2022-09-14T02:36:07.867Z,100859.94
2022-09-14T02:38:41.200Z,100862.56
2022-09-14T02:41:17.722Z,100861.75
2022-09-14T02:44:04.573Z,100856.47
2022-09-14T02:47:02.442Z,100854.91
2022-09-14T02:49:49.248Z,100849.88
2022-09-14T02:52:34.449Z,100848.94
2022-09-14T02:55:09.360Z,100853.50
2022-09-14T02:58:00.852Z,100851.94
2022-09-14T03:00:29.347Z,100838.06
2022-09-14T03:02:55.963Z,100845.16
2022-09-14T03:05:22.433Z,100833.25
2022-09-14T03:07:49.128Z,100828.09
2022-09-14T03:10:15.636Z,100829.69
2022-09-14T03:12:42.071Z,100833.16
2022-09-14T03:15:08.954Z,100837.69
2022-09-14T03:17:35.418Z,100843.91
2022-09-14T03:20:02.781Z,100843.19
2022-09-14T03:22:29.219Z,100838.88
2022-09-14T03:24:55.614Z,100837.34
2022-09-14T03:27:22.046Z,100828.72
2022-09-14T03:29:48.460Z,100827.88
2022-09-14T03:32:14.899Z,100817.59
2022-09-14T03:34:41.339Z,100814.22
2022-09-14T03:37:08.127Z,100810.91
2022-09-14T03:39:34.517Z,100805.63
2022-09-14T03:42:00.935Z,100818.06
2022-09-14T03:44:27.941Z,100818.91
2022-09-14T03:46:54.394Z,100819.03
2022-09-14T03:49:20.862Z,100813.78
2022-09-14T03:51:47.297Z,100810.19
2022-09-14T03:54:14.059Z,100811.88
2022-09-14T03:56:40.644Z,100800.47
2022-09-14T03:59:09.558Z,100799.66
2022-09-14T04:01:38.325Z,100800.72
2022-09-14T04:04:04.866Z,100792.97
2022-09-14T04:06:32.686Z,100791.63
2022-09-14T04:09:00.005Z,100789.16
2022-09-14T04:11:28.114Z,100790.34
2022-09-14T04:13:54.508Z,100787.97
2022-09-14T04:16:21.904Z,100790.00
2022-09-14T04:18:48.827Z,100793.13
2022-09-14T04:21:17.742Z,100786.19
2022-09-14T04:24:13.361Z,100784.50
2022-09-14T04:26:32.349Z,100782.00
2022-09-14T04:28:59.588Z,100779.69
2022-09-14T04:31:26.581Z,100789.41
2022-09-14T04:33:56.251Z,100784.13
2022-09-14T04:36:28.151Z,100775.16
2022-09-14T04:38:57.040Z,100783.06
2022-09-14T04:41:23.891Z,100785.56
2022-09-14T04:43:51.503Z,100778.63
2022-09-14T04:46:20.641Z,100781.25
2022-09-14T04:48:47.189Z,100775.31
2022-09-14T04:51:18.303Z,100778.88
2022-09-14T04:53:47.244Z,100777.31
2022-09-14T04:56:14.581Z,100768.34
2022-09-14T04:58:51.636Z,100766.44
2022-09-14T05:01:23.800Z,100757.94
2022-09-14T05:03:51.131Z,100754.72
2022-09-14T05:06:26.265Z,100764.41
2022-09-14T05:08:53.541Z,100775.03
2022-09-14T05:11:23.268Z,100768.00
2022-09-14T05:13:50.404Z,100768.72
2022-09-14T05:16:22.039Z,100781.03
2022-09-14T05:18:50.206Z,100767.16
2022-09-14T05:21:18.967Z,100766.31
2022-09-14T05:23:46.388Z,100775.78
2022-09-14T05:26:14.231Z,100779.34
2022-09-14T05:28:40.743Z,100780.31
2022-09-14T05:31:10.845Z,100775.03
2022-09-14T05:33:37.697Z,100781.03
2022-09-14T05:36:06.590Z,100780.06
2022-09-14T05:38:34.833Z,100779.84
2022-09-14T05:41:01.480Z,100783.31
2022-09-14T05:43:29.399Z,100779.00
2022-09-14T05:45:56.373Z,100781.63
2022-09-14T05:48:23.042Z,100769.19
2022-09-14T05:50:49.444Z,100769.91
2022-09-14T05:53:15.867Z,100777.66
2022-09-14T05:55:42.345Z,100773.38
2022-09-14T05:58:08.740Z,100769.78
2022-09-14T06:00:35.248Z,100771.56
2022-09-14T06:03:01.655Z,100773.97
2022-09-14T06:05:28.287Z,100781.75
2022-09-14T06:07:54.869Z,100776.25
2022-09-14T06:10:21.983Z,100772.66
2022-09-14T06:16:01.392Z,100774.44
2022-09-14T06:19:40.072Z,100769.78
2022-09-14T06:24:51.758Z,100775.63
2022-09-14T06:28:38.451Z,100782.94
2022-09-14T06:39:00.552Z,100775.34
2022-09-14T06:57:29.213Z,100769.69
2022-09-14T07:00:08.478Z,100775.44
2022-09-14T07:02:55.591Z,100772.34
2022-09-14T07:08:47.362Z,100772.69
2022-09-14T07:11:18.552Z,100769.94
2022-09-14T07:13:48.766Z,100765.41
2022-09-14T07:19:48.048Z,100767.53
2022-09-14T07:22:41.683Z,100768.97
2022-09-14T07:28:06.260Z,100765.44
2022-09-14T07:30:58.357Z,100766.75
2022-09-14T07:39:26.911Z,100769.50
2022-09-14T07:41:56.730Z,100764.81
2022-09-14T07:47:49.888Z,100769.97
2022-09-14T07:50:21.754Z,100766.56
2022-09-14T08:02:24.548Z,100763.88
2022-09-14T08:05:14.592Z,100764.59
2022-09-14T09:01:21.734Z,100721.84
2022-09-14T09:09:00.769Z,100722.97
2022-09-14T09:33:57.774Z,100731.94
2022-09-14T09:44:19.972Z,100721.09
2022-09-14T09:50:26.302Z,100720.72
2022-09-14T09:53:41.184Z,100719.72
2022-09-14T10:14:54.536Z,100723.50
2022-09-14T10:18:01.755Z,100727.81
2022-09-14T10:24:02.323Z,100715.03
2022-09-14T10:26:40.883Z,100714.16
2022-09-14T10:48:38.613Z,100694.09
2022-09-14T10:55:19.975Z,100696.16
2022-09-14T10:58:22.490Z,100698.25
2022-09-14T11:01:09.239Z,100702.78
2022-09-14T11:03:46.116Z,100706.69
2022-09-14T11:06:34.340Z,100694.19
2022-09-14T11:09:06.791Z,100703.59
2022-09-14T11:11:46.746Z,100700.34
2022-09-14T11:14:27.472Z,100691.75
2022-09-14T11:17:12.922Z,100703.75
2022-09-14T11:19:47.019Z,100708.03
2022-09-14T11:22:25.666Z,100707.91
2022-09-14T11:28:28.442Z,100713.59
2022-09-14T11:31:40.114Z,100711.97
2022-09-14T11:34:30.883Z,100713.63
2022-09-14T11:37:48.590Z,100713.50
2022-09-14T11:49:12.730Z,100698.16
2022-09-14T11:52:15.111Z,100695.88
2022-09-14T12:04:29.247Z,100698.16
2022-09-14T12:15:24.553Z,100686.88
2022-09-14T12:37:12.180Z,100682.78
2022-09-14T12:39:45.743Z,100684.13
2022-09-14T12:42:40.357Z,100670.28
2022-09-14T12:53:25.186Z,100655.97
2022-09-14T12:57:00.582Z,100651.19
2022-09-14T13:29:02.264Z,100625.38
2022-09-14T13:34:49.022Z,100618.97
2022-09-14T13:37:18.752Z,100618.81
2022-09-14T13:39:53.338Z,100614.59
2022-09-14T13:42:26.851Z,100615.59
2022-09-14T13:45:08.189Z,100616.06
2022-09-14T14:21:48.788Z,100607.00
2022-09-14T14:25:27.714Z,100596.09
2022-09-14T14:33:03.763Z,100585.19
2022-09-14T14:39:05.222Z,100579.69
2022-09-14T14:41:56.216Z,100572.94
2022-09-14T14:45:24.416Z,100573.94
2022-09-14T14:48:08.727Z,100570.63
2022-09-14T15:00:49.448Z,100562.41
2022-09-14T15:06:44.996Z,100556.28
2022-09-14T15:09:41.034Z,100557.78
2022-09-14T15:15:02.463Z,100549.97
2022-09-14T15:21:57.298Z,100537.38
2022-09-14T15:25:27.135Z,100531.03
2022-09-14T15:37:28.535Z,100540.41
2022-09-14T15:43:00.680Z,100539.91
2022-09-14T15:44:11.152Z,100534.53
2022-09-14T15:45:30.343Z,100534.91
2022-09-14T15:58:04.377Z,100548.81
2022-09-14T16:01:30.137Z,100552.09
2022-09-14T16:04:27.995Z,100558.91
2022-09-14T16:07:16.061Z,100545.78
2022-09-14T16:20:48.220Z,100577.06
2022-09-14T16:23:18.306Z,100577.41
2022-09-14T16:25:48.318Z,100578.53
2022-09-14T16:28:40.993Z,100582.19
2022-09-14T16:32:28.001Z,100580.81
2022-09-14T16:34:57.283Z,100591.53
2022-09-14T16:40:24.798Z,100581.91
2022-09-14T17:03:31.603Z,100587.31
2022-09-14T17:21:27.670Z,100599.00
2022-09-14T17:23:57.606Z,100607.38
2022-09-14T17:29:20.880Z,100608.44
2022-09-14T17:31:51.780Z,100610.53
2022-09-14T17:34:23.542Z,100607.06
2022-09-14T17:36:54.675Z,100611.38
2022-09-14T17:39:24.173Z,100613.34
2022-09-14T17:41:54.161Z,100613.19
2022-09-14T17:53:16.083Z,100631.16
2022-09-14T17:59:15.681Z,100644.00
2022-09-14T18:01:45.422Z,100637.03
2022-09-14T18:04:48.558Z,100642.34
2022-09-14T18:07:18.586Z,100648.22
2022-09-14T18:10:42.203Z,100640.28
2022-09-14T18:18:43.594Z,100651.44
2022-09-14T18:21:16.888Z,100650.78
2022-09-14T18:23:54.192Z,100653.84
2022-09-14T18:26:48.622Z,100652.34
2022-09-14T18:29:18.676Z,100661.53
2022-09-14T18:31:48.209Z,100659.22
2022-09-14T18:37:25.920Z,100661.88
2022-09-14T18:42:44.468Z,100659.00
2022-09-14T18:45:14.118Z,100664.28
2022-09-14T18:47:50.213Z,100665.84
2022-09-14T18:50:24.180Z,100669.06
2022-09-14T18:52:54.884Z,100668.50
2022-09-14T18:55:25.903Z,100669.63
2022-09-14T18:57:54.490Z,100666.44
2022-09-14T19:00:53.720Z,100666.56
2022-09-14T19:03:31.662Z,100666.00
2022-09-14T19:06:09.368Z,100661.28
2022-09-14T19:09:09.077Z,100660.75
2022-09-14T19:11:39.606Z,100667.56
2022-09-14T19:14:25.913Z,100670.50
2022-09-14T19:17:13.972Z,100669.78
2022-09-14T19:19:56.023Z,100676.03
2022-09-14T19:22:36.535Z,100678.00
2022-09-14T19:27:58.765Z,100678.84
2022-09-14T19:30:30.574Z,100680.66
2022-09-14T19:33:08.680Z,100672.72
2022-09-14T19:37:19.199Z,100683.28
2022-09-14T19:38:40.327Z,100691.34
2022-09-14T19:41:09.688Z,100691.34
2022-09-14T19:46:47.300Z,100682.31
2022-09-14T19:50:19.747Z,100687.88
2022-09-14T19:52:22.897Z,100681.06
2022-09-14T19:57:36.686Z,100684.00
2022-09-14T20:03:08.563Z,100687.19
2022-09-14T20:05:46.149Z,100691.63
2022-09-14T20:08:50.202Z,100683.84
2022-09-14T20:11:47.858Z,100694.13
2022-09-14T20:14:31.875Z,100694.94
2022-09-14T20:17:10.726Z,100691.84
2022-09-14T20:19:49.902Z,100686.00
2022-09-14T20:22:25.775Z,100695.44
2022-09-14T20:27:43.253Z,100701.94
2022-09-14T20:30:49.814Z,100702.00
2022-09-14T20:33:18.579Z,100699.19
2022-09-14T20:39:27.340Z,100706.38
2022-09-14T20:44:48.392Z,100712.41
2022-09-14T20:48:00.668Z,100711.59
2022-09-14T20:50:40.818Z,100708.22
2022-09-14T20:53:09.629Z,100711.00
2022-09-14T20:56:13.818Z,100711.78
2022-09-14T20:58:51.249Z,100708.56
2022-09-14T21:01:25.969Z,100717.47
2022-09-14T21:06:53.031Z,100721.75
2022-09-14T21:09:24.685Z,100721.03
2022-09-14T21:11:55.464Z,100723.41
2022-09-14T21:14:27.337Z,100725.69
2022-09-14T21:17:02.763Z,100727.22
2022-09-14T21:19:32.659Z,100721.25
2022-09-14T21:22:03.173Z,100727.88
2022-09-14T21:27:25.896Z,100730.63
2022-09-14T21:32:40.676Z,100728.88
2022-09-14T21:35:14.884Z,100734.28
2022-09-14T21:37:51.143Z,100736.47
2022-09-14T21:40:29.357Z,100734.47
2022-09-14T21:43:22.816Z,100734.97
2022-09-14T22:41:45.482Z,100734.63
2022-09-14T22:59:04.857Z,100751.34
2022-09-14T23:20:24.328Z,100754.44
2022-09-14T23:31:20.568Z,100768.09
2022-09-14T23:40:52.309Z,100771.06
2022-09-14T23:48:24.878Z,100782.41
